createdAt,value
2019-04-14T00:01:54.548Z,34.33
2019-04-14T00:04:44.419Z,32.67
2019-04-14T00:07:17.067Z,34.87
2019-04-14T00:09:49.755Z,34.30
2019-04-14T00:12:21.276Z,34.40
2019-04-14T00:14:53.405Z,30.80
2019-04-14T00:17:26.263Z,27.80
2019-04-14T00:19:58.820Z,29.37
2019-04-14T00:22:30.986Z,32.47
2019-04-14T00:25:04.127Z,29.27
2019-04-14T00:27:38.627Z,27.60
2019-04-14T00:30:11.884Z,31.90
2019-04-14T00:32:49.466Z,30.17
2019-04-14T00:35:32.105Z,29.27
2019-04-14T00:38:34.554Z,31.63
2019-04-14T00:41:39.437Z,27.73
2019-04-14T00:44:34.226Z,28.67
2019-04-14T00:47:15.657Z,26.50
2019-04-14T00:49:48.856Z,26.03
2019-04-14T00:52:21.183Z,28.17
2019-04-14T00:54:54.226Z,28.90
2019-04-14T00:57:26.869Z,26.47
2019-04-14T00:59:59.532Z,27.10
2019-04-14T01:02:31.843Z,29.43
2019-04-14T01:05:04.255Z,28.30
2019-04-14T01:07:36.993Z,28.80
2019-04-14T01:10:10.398Z,25.87
2019-04-14T01:12:43.084Z,27.40
2019-04-14T01:15:15.734Z,27.87
2019-04-14T01:17:48.543Z,26.87
2019-04-14T01:20:19.546Z,28.67
2019-04-14T01:22:51.061Z,30.07
2019-04-14T01:25:26.077Z,28.23
2019-04-14T01:27:58.195Z,29.20
2019-04-14T01:30:30.614Z,30.13
2019-04-14T01:33:03.175Z,27.63
2019-04-14T01:35:35.750Z,27.27
2019-04-14T01:38:08.043Z,28.17
2019-04-14T01:40:40.154Z,27.10
2019-04-14T01:43:12.357Z,27.67
2019-04-14T01:45:59.004Z,28.97
2019-04-14T01:48:19.035Z,27.90
2019-04-14T01:51:20.269Z,26.67
2019-04-14T01:54:21.327Z,25.23
2019-04-14T01:57:15.370Z,27.63
2019-04-14T01:59:46.795Z,27.87
2019-04-14T02:02:21.026Z,26.60
2019-04-14T02:04:52.894Z,26.07
2019-04-14T02:07:25.431Z,27.97
2019-04-14T02:10:04.758Z,27.60
2019-04-14T02:12:54.213Z,27.93
2019-04-14T02:15:27.041Z,24.53
2019-04-14T02:17:58.919Z,27.50
2019-04-14T02:20:31.778Z,26.20
2019-04-14T02:23:03.997Z,25.70
2019-04-14T02:25:36.023Z,26.13
2019-04-14T02:28:07.037Z,26.77
2019-04-14T02:30:47.066Z,28.60
2019-04-14T02:33:41.296Z,25.80
2019-04-14T02:36:14.777Z,25.50
2019-04-14T02:38:47.377Z,26.37
2019-04-14T02:41:24.618Z,25.57
2019-04-14T02:43:51.457Z,27.00
2019-04-14T02:46:20.151Z,25.10
2019-04-14T02:48:55.443Z,30.00
2019-04-14T02:51:25.603Z,27.40
2019-04-14T02:59:03.953Z,24.43
2019-04-14T03:01:55.277Z,25.33
2019-04-14T03:05:34.364Z,25.90
2019-04-14T03:09:01.218Z,23.20
2019-04-14T03:11:31.414Z,23.63
2019-04-14T03:14:11.572Z,25.37
2019-04-14T03:17:11.133Z,25.37
2019-04-14T03:19:56.798Z,24.70
2019-04-14T03:25:37.538Z,24.73
2019-04-14T03:28:36.669Z,23.67
2019-04-14T03:38:46.514Z,23.73
2019-04-14T03:43:41.023Z,23.50
2019-04-14T03:46:25.439Z,25.07
2019-04-14T03:48:58.033Z,27.80
2019-04-14T03:54:08.518Z,25.23
2019-04-14T03:56:49.342Z,26.57
2019-04-14T03:59:21.844Z,24.23
2019-04-14T04:01:54.541Z,24.70
2019-04-14T04:04:27.346Z,25.13
2019-04-14T04:07:03.890Z,22.60
2019-04-14T04:09:43.043Z,21.83
2019-04-14T04:12:14.476Z,22.50
2019-04-14T04:14:46.375Z,21.70
2019-04-14T04:17:38.746Z,21.57
2019-04-14T04:20:32.844Z,23.77
2019-04-14T04:23:24.849Z,22.20
2019-04-14T04:26:17.691Z,22.47
2019-04-14T04:29:09.120Z,22.70
2019-04-14T04:32:16.436Z,23.30
2019-04-14T04:35:07.185Z,25.50
2019-04-14T04:38:03.545Z,25.40
2019-04-14T04:40:36.051Z,23.70
2019-04-14T04:43:07.962Z,22.90
2019-04-14T04:45:40.814Z,23.07
2019-04-14T04:48:13.209Z,24.50
2019-04-14T04:50:45.375Z,24.93
2019-04-14T04:53:18.081Z,23.40
2019-04-14T04:55:50.467Z,25.20
2019-04-14T04:58:21.698Z,25.23
2019-04-14T05:00:54.945Z,30.23
2019-04-14T05:03:27.490Z,25.40
2019-04-14T05:06:39.314Z,26.60
2019-04-14T05:09:18.847Z,24.50
2019-04-14T05:12:15.274Z,25.17
2019-04-14T05:14:52.349Z,24.60
2019-04-14T05:17:25.325Z,24.53
2019-04-14T05:19:58.437Z,24.87
2019-04-14T05:22:29.661Z,24.90
2019-04-14T05:25:01.429Z,24.77
2019-04-14T05:27:32.604Z,23.80
2019-04-14T05:30:04.725Z,24.43
2019-04-14T05:32:36.968Z,26.60
2019-04-14T05:35:09.637Z,22.50
2019-04-14T05:37:42.135Z,24.70
2019-04-14T05:40:14.555Z,26.48
2019-04-14T05:42:47.315Z,24.60
2019-04-14T05:45:20.133Z,26.27
2019-04-14T05:47:54.262Z,22.20
2019-04-14T05:50:29.161Z,24.40
2019-04-14T05:53:00.397Z,24.00
2019-04-14T05:55:32.787Z,22.00
2019-04-14T05:58:05.732Z,23.20
2019-04-14T06:00:39.050Z,23.77
2019-04-14T06:03:10.352Z,24.67
2019-04-14T06:05:41.047Z,23.43
2019-04-14T06:08:12.625Z,23.43
2019-04-14T06:10:44.551Z,23.87
2019-04-14T06:13:16.033Z,23.37
2019-04-14T06:15:47.196Z,21.67
2019-04-14T06:18:19.394Z,24.13
2019-04-14T06:20:50.694Z,24.50
2019-04-14T06:23:22.068Z,27.70
2019-04-14T06:25:53.009Z,24.00
2019-04-14T06:28:24.632Z,25.47
2019-04-14T06:31:14.522Z,25.80
2019-04-14T06:34:04.153Z,26.37
2019-04-14T06:37:03.748Z,26.27
2019-04-14T06:39:38.840Z,26.13
2019-04-14T06:42:11.332Z,24.80
2019-04-14T06:44:43.272Z,25.97
2019-04-14T06:47:15.206Z,25.17
2019-04-14T06:49:49.185Z,27.10
2019-04-14T06:52:20.351Z,27.00
2019-04-14T06:54:52.330Z,24.67
2019-04-14T06:57:25.264Z,26.00
2019-04-14T06:59:56.802Z,26.20
2019-04-14T07:02:27.979Z,24.47
2019-04-14T07:04:59.282Z,24.27
2019-04-14T07:07:31.799Z,26.43
2019-04-14T07:10:03.152Z,25.10
2019-04-14T07:12:34.571Z,25.17
2019-04-14T07:15:06.111Z,25.73
2019-04-14T07:17:37.681Z,33.27
2019-04-14T07:20:10.276Z,26.50
2019-04-14T07:22:41.381Z,26.30
2019-04-14T07:25:16.158Z,26.40
2019-04-14T07:27:47.796Z,24.60
2019-04-14T07:30:41.037Z,25.87
2019-04-14T07:33:31.008Z,25.80
2019-04-14T07:36:21.501Z,23.70
2019-04-14T07:39:14.630Z,23.90
2019-04-14T07:41:55.471Z,26.37
2019-04-14T07:44:49.982Z,25.60
2019-04-14T07:47:32.880Z,25.10
2019-04-14T07:50:16.968Z,26.43
2019-04-14T07:53:06.459Z,26.30
2019-04-14T07:55:54.984Z,27.13
2019-04-14T07:58:31.498Z,25.53
2019-04-14T08:01:10.736Z,25.50
2019-04-14T08:04:00.495Z,25.33
2019-04-14T08:06:33.038Z,28.20
2019-04-14T08:09:06.687Z,26.20
2019-04-14T08:11:38.434Z,29.40
2019-04-14T08:14:09.838Z,28.53
2019-04-14T08:16:40.999Z,29.47
2019-04-14T08:19:12.951Z,33.13
2019-04-14T08:21:44.587Z,28.50
2019-04-14T08:24:16.335Z,27.87
2019-04-14T08:26:47.371Z,25.20
2019-04-14T08:29:18.311Z,26.93
2019-04-14T08:31:49.866Z,26.83
2019-04-14T08:34:21.077Z,23.53
2019-04-14T08:36:52.952Z,24.80
2019-04-14T08:39:24.394Z,25.67
2019-04-14T08:42:03.041Z,25.70
2019-04-14T08:44:40.830Z,24.07
2019-04-14T08:47:33.033Z,24.47
2019-04-14T08:50:11.069Z,25.40
2019-04-14T08:53:07.635Z,25.70
2019-04-14T08:56:01.367Z,24.37
2019-04-14T08:59:01.844Z,26.57
2019-04-14T09:01:55.250Z,23.40
2019-04-14T09:04:45.209Z,23.77
2019-04-14T09:07:38.492Z,25.07
2019-04-14T09:10:15.693Z,23.17
2019-04-14T09:12:48.923Z,26.20
2019-04-14T09:15:20.459Z,28.27
2019-04-14T09:17:51.628Z,28.63
2019-04-14T09:20:22.799Z,26.10
2019-04-14T09:22:53.850Z,26.67
2019-04-14T09:25:25.543Z,25.23
2019-04-14T09:27:57.451Z,24.27
2019-04-14T09:30:28.987Z,23.57
2019-04-14T09:33:01.446Z,24.17
2019-04-14T09:35:34.326Z,28.60
2019-04-14T09:38:06.102Z,26.23
2019-04-14T09:40:37.422Z,25.40
2019-04-14T09:43:09.150Z,25.37
2019-04-14T09:45:41.594Z,23.50
2019-04-14T09:48:15.547Z,22.37
2019-04-14T09:50:47.274Z,23.53
2019-04-14T09:53:18.909Z,26.33
2019-04-14T09:55:49.964Z,23.83
2019-04-14T09:58:21.787Z,23.00
2019-04-14T10:00:53.436Z,24.57
2019-04-14T10:03:25.973Z,23.40
2019-04-14T10:05:57.460Z,23.10
2019-04-14T10:08:30.119Z,23.37
2019-04-14T10:11:02.008Z,22.87
2019-04-14T10:13:33.461Z,27.77
2019-04-14T10:16:05.448Z,23.20
2019-04-14T10:18:36.812Z,22.73
2019-04-14T10:21:17.239Z,22.00
2019-04-14T10:23:40.988Z,25.20
2019-04-14T10:26:13.256Z,23.70
2019-04-14T10:28:45.640Z,25.20
2019-04-14T10:31:16.750Z,25.50
2019-04-14T10:33:48.607Z,24.87
2019-04-14T10:36:20.395Z,25.07
2019-04-14T10:38:56.147Z,24.60
2019-04-14T10:41:28.025Z,24.90
2019-04-14T10:43:59.169Z,23.87
2019-04-14T10:46:31.549Z,24.93
2019-04-14T10:49:03.312Z,24.90
2019-04-14T10:51:35.069Z,25.53
2019-04-14T10:54:06.767Z,25.60
2019-04-14T10:56:39.270Z,23.50
2019-04-14T10:59:11.130Z,24.50
2019-04-14T11:01:42.731Z,24.60
2019-04-14T11:04:14.749Z,24.07
2019-04-14T11:07:05.352Z,23.50
2019-04-14T11:09:36.885Z,25.10
2019-04-14T11:12:08.445Z,23.93
2019-04-14T11:14:39.406Z,30.80
2019-04-14T11:17:10.696Z,25.83
2019-04-14T11:19:42.559Z,23.53
2019-04-14T11:22:13.996Z,24.23
2019-04-14T11:24:45.675Z,23.80
2019-04-14T11:27:17.399Z,22.60
2019-04-14T11:29:53.689Z,22.90
2019-04-14T11:32:41.668Z,21.30
2019-04-14T11:35:34.356Z,22.47
2019-04-14T11:38:40.245Z,22.40
2019-04-14T11:41:15.748Z,20.67
2019-04-14T11:43:48.013Z,22.97
2019-04-14T11:46:19.714Z,20.87
2019-04-14T11:48:50.875Z,21.43
2019-04-14T11:51:22.838Z,20.90
2019-04-14T11:53:54.248Z,22.30
2019-04-14T11:56:25.528Z,22.33
2019-04-14T11:58:57.475Z,21.13
2019-04-14T12:01:46.612Z,20.67
2019-04-14T12:04:31.531Z,20.30
2019-04-14T12:07:20.539Z,20.80
2019-04-14T12:10:21.169Z,20.37
2019-04-14T12:12:52.762Z,19.60
2019-04-14T12:15:24.916Z,21.07
2019-04-14T12:17:56.865Z,21.73
2019-04-14T12:20:29.120Z,21.43
2019-04-14T12:22:59.849Z,22.10
2019-04-14T12:25:31.477Z,21.57
2019-04-14T12:28:04.673Z,22.30
2019-04-14T12:30:37.744Z,21.80
2019-04-14T12:33:09.463Z,21.27
2019-04-14T12:35:42.271Z,20.70
2019-04-14T12:38:15.080Z,21.30
2019-04-14T12:40:47.308Z,20.47
2019-04-14T12:43:39.390Z,22.20
2019-04-14T12:46:21.571Z,21.00
2019-04-14T12:49:11.831Z,21.77
2019-04-14T12:52:01.548Z,21.90
2019-04-14T12:54:33.073Z,21.87
2019-04-14T12:57:04.690Z,21.37
2019-04-14T12:59:37.589Z,20.80
2019-04-14T13:02:16.116Z,21.10
2019-04-14T13:04:47.478Z,20.30
2019-04-14T13:07:19.845Z,22.10
2019-04-14T13:09:51.808Z,20.10
2019-04-14T13:12:23.672Z,25.50
2019-04-14T13:14:55.244Z,20.00
2019-04-14T13:17:26.590Z,19.60
2019-04-14T13:19:58.044Z,20.03
2019-04-14T13:22:34.047Z,20.43
2019-04-14T13:25:02.943Z,19.33
2019-04-14T13:27:34.513Z,19.40
2019-04-14T13:30:07.840Z,20.20
2019-04-14T13:32:39.957Z,19.47
2019-04-14T13:35:12.511Z,19.03
2019-04-14T13:37:44.333Z,18.87
2019-04-14T13:40:16.763Z,20.30
2019-04-14T13:42:48.230Z,19.80
2019-04-14T13:45:18.958Z,20.20
2019-04-14T13:47:50.089Z,21.43
2019-04-14T13:50:21.315Z,20.80
2019-04-14T13:52:52.938Z,19.90
2019-04-14T13:55:24.794Z,20.57
2019-04-14T13:57:56.243Z,20.50
2019-04-14T14:00:29.996Z,20.17
2019-04-14T14:03:04.548Z,20.40
2019-04-14T14:05:46.135Z,20.40
2019-04-14T14:08:19.009Z,20.67
2019-04-14T14:10:52.383Z,20.43
2019-04-14T14:13:45.255Z,21.07
2019-04-14T14:16:24.301Z,21.33
2019-04-14T14:19:03.043Z,20.97
2019-04-14T14:21:56.329Z,22.67
2019-04-14T14:24:34.282Z,20.77
2019-04-14T14:27:05.733Z,21.30
2019-04-14T14:29:48.771Z,20.57
2019-04-14T14:32:28.946Z,19.47
2019-04-14T14:35:00.446Z,20.97
2019-04-14T14:37:32.466Z,20.83
2019-04-14T14:40:03.561Z,19.27
2019-04-14T14:42:34.576Z,19.37
2019-04-14T14:45:22.791Z,19.83
2019-04-14T14:48:27.990Z,19.30
2019-04-14T14:51:29.054Z,17.83
2019-04-14T14:54:03.708Z,18.63
2019-04-14T14:56:35.050Z,19.83
2019-04-14T14:59:08.289Z,19.07
2019-04-14T15:01:41.770Z,18.10
2019-04-14T15:04:15.464Z,18.27
2019-04-14T15:06:54.506Z,17.70
2019-04-14T15:09:28.429Z,17.93
2019-04-14T15:11:59.749Z,18.10
2019-04-14T15:14:34.901Z,20.63
2019-04-14T15:17:08.994Z,28.60
2019-04-14T15:19:43.145Z,20.57
2019-04-14T15:22:14.486Z,23.77
2019-04-14T15:24:46.266Z,20.30
2019-04-14T15:27:17.594Z,19.67
2019-04-14T15:29:48.436Z,17.97
2019-04-14T15:32:19.706Z,19.23
2019-04-14T15:34:50.866Z,17.77
2019-04-14T15:37:22.042Z,17.47
2019-04-14T15:39:54.511Z,18.67
2019-04-14T15:42:26.645Z,17.50
2019-04-14T15:44:57.683Z,17.97
2019-04-14T15:47:29.471Z,17.90
2019-04-14T15:50:01.622Z,18.00
2019-04-14T15:52:34.263Z,18.30
2019-04-14T15:55:06.267Z,25.40
2019-04-14T15:57:50.426Z,17.30
2019-04-14T16:00:43.865Z,18.57
2019-04-14T16:03:21.642Z,18.23
2019-04-14T16:06:00.925Z,18.10
2019-04-14T16:08:37.343Z,19.03
2019-04-14T16:11:17.243Z,20.63
2019-04-14T16:14:07.766Z,22.70
2019-04-14T16:17:04.175Z,25.80
2019-04-14T16:20:03.025Z,33.80
2019-04-14T16:22:35.545Z,24.30
2019-04-14T16:25:08.838Z,21.77
2019-04-14T16:27:50.693Z,22.83
2019-04-14T16:30:51.266Z,19.20
2019-04-14T16:33:54.266Z,18.37
2019-04-14T16:36:27.273Z,17.83
2019-04-14T16:38:59.124Z,17.80
2019-04-14T16:41:31.066Z,17.17
2019-04-14T16:44:03.187Z,17.60
2019-04-14T16:46:35.333Z,18.57
2019-04-14T16:49:07.063Z,17.57
2019-04-14T16:51:58.161Z,17.53
2019-04-14T16:54:50.206Z,17.63
2019-04-14T16:57:39.006Z,18.17
2019-04-14T17:00:13.257Z,16.93
2019-04-14T17:02:45.500Z,19.77
2019-04-14T17:05:17.312Z,16.83
2019-04-14T17:07:49.774Z,16.80
2019-04-14T17:10:21.887Z,16.90
2019-04-14T17:12:53.881Z,16.33
2019-04-14T17:15:45.702Z,21.10
2019-04-14T17:18:31.720Z,16.97
2019-04-14T17:21:31.792Z,16.63
2019-04-14T17:24:19.937Z,16.17
2019-04-14T17:27:29.825Z,17.57
2019-04-14T17:30:26.980Z,29.03
2019-04-14T17:33:14.603Z,22.10
2019-04-14T17:35:58.889Z,22.30
2019-04-14T17:38:47.386Z,26.30
2019-04-14T17:41:36.145Z,22.07
2019-04-14T17:44:20.627Z,20.57
2019-04-14T17:47:14.476Z,21.20
2019-04-14T17:50:12.427Z,22.30
2019-04-14T17:52:49.175Z,23.43
2019-04-14T17:55:30.612Z,22.43
2019-04-14T17:58:22.370Z,21.37
2019-04-14T18:01:07.255Z,23.33
2019-04-14T18:03:58.067Z,21.23
2019-04-14T18:06:35.986Z,20.03
2019-04-14T18:09:28.752Z,29.10
2019-04-14T18:12:25.827Z,22.93
2019-04-14T18:15:16.730Z,23.90
2019-04-14T18:18:00.959Z,31.33
2019-04-14T18:20:37.665Z,28.57
2019-04-14T18:23:11.308Z,27.33
2019-04-14T18:25:44.517Z,21.83
2019-04-14T18:28:41.394Z,34.20
2019-04-14T18:31:25.062Z,27.50
2019-04-14T18:34:14.321Z,19.03
2019-04-14T18:37:06.547Z,21.07
2019-04-14T18:39:50.079Z,21.17
2019-04-14T18:42:30.778Z,19.70
2019-04-14T18:45:27.618Z,19.93
2019-04-14T18:48:18.814Z,24.37
2019-04-14T18:51:09.186Z,25.13
2019-04-14T18:54:02.566Z,31.10
2019-04-14T18:56:47.955Z,29.30
2019-04-14T18:59:37.095Z,37.10
2019-04-14T19:02:10.732Z,32.53
2019-04-14T19:04:42.657Z,24.37
2019-04-14T19:07:19.549Z,34.43
2019-04-14T19:09:51.469Z,19.93
2019-04-14T19:12:37.035Z,23.87
2019-04-14T19:15:31.987Z,18.07
2019-04-14T19:18:17.467Z,19.00
2019-04-14T19:20:55.328Z,20.20
2019-04-14T19:23:27.028Z,20.13
2019-04-14T19:25:59.741Z,19.10
2019-04-14T19:28:31.591Z,17.10
2019-04-14T19:31:03.271Z,17.67
2019-04-14T19:33:34.395Z,17.97
2019-04-14T19:36:05.868Z,17.10
2019-04-14T19:38:37.136Z,17.40
2019-04-14T19:41:13.115Z,19.10
2019-04-14T19:43:45.046Z,17.27
2019-04-14T19:46:17.222Z,17.33
2019-04-14T19:48:47.970Z,17.70
2019-04-14T19:51:19.847Z,15.97
2019-04-14T19:53:52.711Z,18.03
2019-04-14T19:56:24.355Z,17.00
2019-04-14T19:58:56.738Z,17.03
2019-04-14T20:01:27.932Z,17.13
2019-04-14T20:03:58.786Z,16.13
2019-04-14T20:06:40.651Z,18.03
2019-04-14T20:09:49.207Z,17.00
2019-04-14T20:12:27.293Z,16.97
2019-04-14T20:14:58.120Z,15.57
2019-04-14T20:17:46.533Z,17.97
2019-04-14T20:20:41.592Z,19.13
2019-04-14T20:23:34.273Z,16.90
2019-04-14T20:26:24.367Z,19.97
2019-04-14T20:29:18.134Z,17.97
2019-04-14T20:31:53.577Z,18.43
2019-04-14T20:34:26.162Z,20.00
2019-04-14T20:36:57.729Z,16.47
2019-04-14T20:39:32.544Z,19.60
2019-04-14T20:42:05.499Z,16.57
2019-04-14T20:44:36.712Z,17.77
2019-04-14T20:47:09.872Z,15.60
2019-04-14T20:49:42.139Z,17.50
2019-04-14T20:52:13.389Z,17.30
2019-04-14T20:54:45.385Z,16.50
2019-04-14T20:57:17.827Z,17.10
2019-04-14T20:59:49.313Z,15.83
2019-04-14T21:02:48.467Z,16.80
2019-04-14T21:05:45.302Z,17.27
2019-04-14T21:08:33.989Z,16.77
2019-04-14T21:11:15.679Z,15.70
2019-04-14T21:14:09.722Z,16.97
2019-04-14T21:16:48.506Z,16.70
2019-04-14T21:19:47.697Z,16.60
2019-04-14T21:22:47.768Z,16.67
2019-04-14T21:25:38.779Z,15.93
2019-04-14T21:28:40.624Z,17.10
2019-04-14T21:31:45.368Z,15.77
2019-04-14T21:34:24.407Z,15.93
2019-04-14T21:37:15.672Z,15.57
2019-04-14T21:40:15.144Z,16.03
2019-04-14T21:42:49.926Z,15.40
2019-04-14T21:45:21.498Z,14.70
2019-04-14T21:47:54.297Z,15.90
2019-04-14T21:50:25.902Z,15.40
2019-04-14T21:52:57.646Z,15.47
2019-04-14T21:55:29.447Z,16.60
2019-04-14T21:58:19.053Z,15.90
2019-04-14T22:01:47.127Z,15.03
2019-04-14T22:04:43.550Z,15.70
2019-04-14T22:07:27.893Z,15.53
2019-04-14T22:10:16.539Z,16.43
2019-04-14T22:12:49.555Z,16.30
2019-04-14T22:15:20.717Z,17.07
2019-04-14T22:17:52.680Z,16.43
2019-04-14T22:20:24.365Z,16.63
2019-04-14T22:22:56.187Z,15.93
2019-04-14T22:25:27.746Z,16.43
2019-04-14T22:27:58.978Z,17.90
2019-04-14T22:30:30.206Z,17.63
2019-04-14T22:33:01.945Z,17.67
2019-04-14T22:35:33.870Z,19.50
2019-04-14T22:38:06.110Z,18.80
2019-04-14T22:40:37.944Z,18.50
2019-04-14T22:43:09.397Z,19.30
2019-04-14T22:45:40.675Z,18.30
2019-04-14T22:48:12.192Z,17.67
2019-04-14T22:50:43.275Z,18.47
2019-04-14T22:53:15.507Z,18.60
2019-04-14T22:55:46.944Z,17.73
2019-04-14T22:58:18.104Z,17.27
2019-04-14T23:00:56.078Z,17.33
2019-04-14T23:03:45.065Z,18.90
2019-04-14T23:06:37.783Z,17.30
2019-04-14T23:09:34.462Z,17.73
2019-04-14T23:12:37.333Z,18.40
2019-04-14T23:15:31.925Z,18.20
2019-04-14T23:18:22.117Z,16.77
2019-04-14T23:21:14.945Z,16.63
2019-04-14T23:24:10.687Z,17.97
2019-04-14T23:26:51.874Z,16.87
2019-04-14T23:29:14.974Z,17.20
2019-04-14T23:31:46.047Z,17.40
2019-04-14T23:34:17.366Z,17.43
2019-04-14T23:36:48.679Z,17.00
2019-04-14T23:39:19.814Z,17.37
2019-04-14T23:41:50.897Z,16.53
2019-04-14T23:44:22.428Z,16.20
2019-04-14T23:46:53.548Z,16.60
2019-04-14T23:49:24.304Z,16.80
2019-04-14T23:51:55.264Z,17.90
2019-04-14T23:54:27.598Z,16.77
2019-04-14T23:57:05.342Z,17.90
2019-04-14T23:59:31.464Z,16.10
